Time;durP1;ratioP1;P1;durP2;ratioP2;P2;SDS_P1;SDS_P2;PMS_P1;PMS_P2;Temp;Humidity;BMP_temperature;BMP_pressure;BME280_temperature;BME280_humidity;BME280_pressure;Samples;Min_cycle;Max_cycle;Signal;HPM_P1;HPM_P2
2023/03/04 00:01:47;;;;;;;12.48;2.03;;;6.40;99.90;;;;;;6250498;22;20008;-80
2023/03/04 00:04:13;;;;;;;13.93;2.05;;;6.40;99.90;;;;;;6250434;22;20016;-80
2023/03/04 00:06:38;;;;;;;14.15;2.13;;;6.40;99.90;;;;;;6250577;22;20023;-80
2023/03/04 00:09:04;;;;;;;13.07;1.48;;;6.40;99.90;;;;;;6250525;22;20378;-80
2023/03/04 00:11:33;;;;;;;17.60;2.60;;;6.40;99.90;;;;;;6250203;22;20428;-80
2023/03/04 00:13:59;;;;;;;12.57;1.80;;;6.40;99.90;;;;;;6250796;22;20470;-80
2023/03/04 00:16:27;;;;;;;17.75;2.92;;;6.40;99.90;;;;;;6250332;22;20019;-80
2023/03/04 00:18:54;;;;;;;14.43;2.60;;;6.40;99.90;;;;;;6250394;22;20325;-80
2023/03/04 00:21:20;;;;;;;8.85;1.38;;;6.40;99.90;;;;;;6250301;22;20012;-80
2023/03/04 00:23:46;;;;;;;12.98;2.28;;;6.40;99.90;;;;;;6277801;22;20019;-80
2023/03/04 00:26:12;;;;;;;9.40;1.42;;;6.40;99.90;;;;;;6250412;22;20331;-80
2023/03/04 00:28:38;;;;;;;8.40;1.25;;;6.40;99.90;;;;;;6250429;22;20015;-80
2023/03/04 00:31:05;;;;;;;7.03;1.10;;;6.30;99.90;;;;;;6249833;22;20019;-80
2023/03/04 00:33:31;;;;;;;17.17;2.15;;;6.30;99.90;;;;;;6277663;22;20072;-80
2023/03/04 00:35:57;;;;;;;6.55;1.17;;;6.30;99.90;;;;;;6277394;22;20023;-80
2023/03/04 00:38:23;;;;;;;13.80;2.20;;;6.30;99.90;;;;;;6277466;22;20332;-80
2023/03/04 00:40:49;;;;;;;9.85;1.58;;;6.30;99.90;;;;;;6250843;22;20031;-79
2023/03/04 00:43:14;;;;;;;7.50;1.17;;;6.30;99.90;;;;;;6250118;22;20012;-80
2023/03/04 00:45:40;;;;;;;9.25;1.25;;;6.30;99.90;;;;;;6250192;22;20051;-80
2023/03/04 00:48:07;;;;;;;15.75;1.85;;;6.30;99.90;;;;;;6245111;22;20026;-80
2023/03/04 00:50:33;;;;;;;8.43;1.42;;;6.30;99.90;;;;;;6250006;22;20031;-79
2023/03/04 00:53:00;;;;;;;12.13;1.60;;;6.20;99.90;;;;;;6250134;22;20008;-80
2023/03/04 00:55:26;;;;;;;14.50;2.42;;;6.20;99.90;;;;;;6249402;22;20342;-80
2023/03/04 00:57:51;;;;;;;7.50;2.55;;;6.20;99.90;;;;;;6249974;22;20450;-80
2023/03/04 01:00:17;;;;;;;23.65;2.70;;;6.20;99.90;;;;;;6250002;22;20372;-80
2023/03/04 01:02:43;;;;;;;7.40;1.70;;;6.20;99.90;;;;;;6277403;22;20015;-80
2023/03/04 01:05:09;;;;;;;15.90;2.60;;;6.20;99.90;;;;;;6277326;22;20041;-80
2023/03/04 01:07:35;;;;;;;11.55;1.83;;;6.20;99.90;;;;;;6249920;22;20023;-80
2023/03/04 01:10:01;;;;;;;5.50;1.42;;;6.20;99.90;;;;;;6249788;22;20020;-80
2023/03/04 01:12:27;;;;;;;9.35;1.00;;;6.30;99.90;;;;;;6249968;22;20012;-80
2023/03/04 01:14:53;;;;;;;14.18;2.17;;;6.20;99.90;;;;;;6249911;22;20338;-80
2023/03/04 01:17:18;;;;;;;8.95;0.95;;;6.20;99.90;;;;;;6249808;22;20046;-80
2023/03/04 01:19:44;;;;;;;11.73;1.73;;;6.20;99.90;;;;;;6249569;22;20296;-80
2023/03/04 01:22:11;;;;;;;6.25;0.70;;;6.20;99.90;;;;;;6249617;22;20022;-80
2023/03/04 01:24:36;;;;;;;7.90;1.85;;;6.20;99.90;;;;;;6276987;22;20149;-79
2023/03/04 01:27:02;;;;;;;10.35;1.40;;;6.20;99.90;;;;;;6249393;22;20047;-79
2023/03/04 01:29:28;;;;;;;10.25;1.40;;;6.10;99.90;;;;;;6276787;22;20332;-80
2023/03/04 01:31:53;;;;;;;8.02;1.30;;;6.10;99.90;;;;;;6276852;22;20023;-80
2023/03/04 01:34:22;;;;;;;11.15;1.23;;;6.20;99.90;;;;;;6249759;22;20484;-81
2023/03/04 01:36:48;;;;;;;13.95;1.73;;;6.10;99.90;;;;;;6276797;22;20351;-80
2023/03/04 01:39:14;;;;;;;6.55;1.38;;;6.10;99.90;;;;;;6249665;22;20502;-80
2023/03/04 01:41:40;;;;;;;10.95;1.77;;;6.10;99.90;;;;;;6249166;22;20019;-80
2023/03/04 01:44:05;;;;;;;12.05;1.80;;;6.10;99.90;;;;;;6249703;22;20448;-80
2023/03/04 01:46:31;;;;;;;12.77;2.67;;;6.10;99.90;;;;;;6249681;22;20022;-80
2023/03/04 01:48:58;;;;;;;13.52;1.80;;;6.20;99.90;;;;;;6276649;22;20079;-81
2023/03/04 01:51:23;;;;;;;8.80;1.33;;;6.10;99.90;;;;;;6249473;22;20521;-80
2023/03/04 01:53:52;;;;;;;5.57;1.00;;;6.10;99.90;;;;;;6249587;22;20015;-80
2023/03/04 01:56:35;;;;;;;8.38;1.08;;;6.20;99.90;;;;;;6276567;22;20451;-81
2023/03/04 01:59:13;;;;;;;;;;;6.20;99.90;;;;;;6250176;22;20014;-80
2023/03/04 02:01:41;;;;;;;11.45;1.10;;;6.20;99.90;;;;;;6277109;22;19922;-81
2023/03/04 02:04:09;;;;;;;14.20;2.65;;;6.20;99.90;;;;;;6249582;22;20321;-81
2023/03/04 02:06:37;;;;;;;11.90;1.60;;;6.20;99.90;;;;;;6276521;22;20038;-80
2023/03/04 02:09:03;;;;;;;14.85;3.35;;;6.20;99.90;;;;;;6276829;22;20012;-80
2023/03/04 02:11:30;;;;;;;10.88;1.40;;;6.20;99.90;;;;;;6249560;22;20026;-81
2023/03/04 02:13:55;;;;;;;8.50;1.17;;;6.20;99.90;;;;;;6277001;22;20016;-80
2023/03/04 02:16:21;;;;;;;12.50;1.50;;;6.20;99.90;;;;;;6276562;22;20069;-81
2023/03/04 02:18:47;;;;;;;11.32;1.88;;;6.20;99.90;;;;;;6250042;22;20015;-81
2023/03/04 02:21:24;;;;;;;10.20;1.60;;;6.20;99.90;;;;;;6276895;22;20019;-81
2023/03/04 02:23:58;;;;;;;7.35;1.70;;;6.30;99.90;;;;;;6249748;22;20038;-81
2023/03/04 02:26:26;;;;;;;10.13;1.35;;;6.30;99.90;;;;;;6276785;22;20019;-80
2023/03/04 02:28:55;;;;;;;11.18;1.85;;;6.20;99.90;;;;;;6276768;22;20016;-81
2023/03/04 02:31:29;;;;;;;6.55;1.05;;;6.30;99.90;;;;;;6276669;22;20015;-80
2023/03/04 02:33:58;;;;;;;4.47;0.98;;;6.30;99.90;;;;;;6249440;22;20011;-81
2023/03/04 02:36:24;;;;;;;11.02;1.33;;;6.30;99.90;;;;;;6250194;22;20050;-81
2023/03/04 02:38:52;;;;;;;11.18;1.20;;;6.20;99.90;;;;;;6249470;22;20018;-81
2023/03/04 02:41:21;;;;;;;12.75;0.93;;;6.20;99.90;;;;;;6249533;22;20034;-80
2023/03/04 02:43:50;;;;;;;11.77;1.05;;;6.30;99.90;;;;;;6249385;22;20016;-81
2023/03/04 02:46:16;;;;;;;9.25;1.02;;;6.20;99.90;;;;;;6249219;22;20061;-81
2023/03/04 02:48:42;;;;;;;12.73;2.80;;;6.20;99.90;;;;;;6249083;22;20020;-81
2023/03/04 02:51:10;;;;;;;12.20;1.63;;;6.20;99.90;;;;;;6249359;22;20024;-81
2023/03/04 02:53:36;;;;;;;6.57;1.20;;;6.20;99.90;;;;;;6249498;22;20027;-80
2023/03/04 02:56:02;;;;;;;14.82;1.27;;;6.20;99.90;;;;;;6278198;22;20023;-81
2023/03/04 02:58:28;;;;;;;8.18;1.02;;;6.30;99.90;;;;;;6278139;22;20332;-81
2023/03/04 03:00:54;;;;;;;10.00;1.73;;;6.20;99.90;;;;;;6251229;22;20019;-80
2023/03/04 03:03:20;;;;;;;8.10;0.93;;;6.20;99.90;;;;;;6251196;22;20054;-80
2023/03/04 03:05:46;;;;;;;6.30;1.15;;;6.20;99.90;;;;;;6250883;22;20016;-81
2023/03/04 03:08:11;;;;;;;19.35;2.08;;;6.20;99.90;;;;;;6278276;22;20047;-81
2023/03/04 03:10:37;;;;;;;10.95;1.50;;;6.20;99.90;;;;;;6251142;22;20023;-81
2023/03/04 03:13:03;;;;;;;10.60;1.02;;;6.20;99.90;;;;;;6251190;22;20105;-81
2023/03/04 03:15:28;;;;;;;11.00;1.42;;;6.20;99.90;;;;;;6278492;22;20016;-81
2023/03/04 03:17:54;;;;;;;9.43;1.38;;;6.20;99.90;;;;;;6278129;22;20047;-81
2023/03/04 03:20:20;;;;;;;8.55;1.52;;;6.20;99.90;;;;;;6278247;22;20020;-81
2023/03/04 03:22:46;;;;;;;6.70;0.63;;;6.20;99.90;;;;;;6251030;22;20024;-80
2023/03/04 03:25:13;;;;;;;10.45;1.80;;;6.20;99.90;;;;;;6278089;22;20320;-80
2023/03/04 03:27:39;;;;;;;11.30;2.28;;;6.20;99.90;;;;;;6251093;22;20016;-80
2023/03/04 03:30:06;;;;;;;10.27;1.42;;;6.20;99.90;;;;;;6250818;22;20030;-80
2023/03/04 03:32:32;;;;;;;18.75;1.65;;;6.20;99.90;;;;;;6251720;22;20007;-80
2023/03/04 03:34:57;;;;;;;7.80;1.33;;;6.20;99.90;;;;;;6250905;22;20011;-80
2023/03/04 03:37:23;;;;;;;10.65;1.05;;;6.30;99.90;;;;;;6250750;22;20095;-80
2023/03/04 03:39:48;;;;;;;9.55;1.15;;;6.30;99.90;;;;;;6277987;22;20023;-80
2023/03/04 03:42:14;;;;;;;8.30;0.85;;;6.30;99.90;;;;;;6250819;22;20019;-81
2023/03/04 03:44:40;;;;;;;13.75;2.58;;;6.30;99.90;;;;;;6278175;22;20020;-81
2023/03/04 03:47:05;;;;;;;9.95;1.60;;;6.30;99.90;;;;;;6278164;22;20008;-81
2023/03/04 03:49:31;;;;;;;11.45;0.90;;;6.30;99.90;;;;;;6250476;22;20019;-81
2023/03/04 03:51:57;;;;;;;12.85;1.20;;;6.40;99.90;;;;;;6277783;22;20020;-81
2023/03/04 03:54:22;;;;;;;8.65;0.95;;;6.40;99.90;;;;;;6278062;22;20057;-81
2023/03/04 03:56:48;;;;;;;9.82;1.25;;;6.40;99.90;;;;;;6250741;22;20336;-81
2023/03/04 03:59:13;;;;;;;11.02;1.60;;;6.40;99.90;;;;;;6250443;22;20043;-81
2023/03/04 04:01:39;;;;;;;6.63;1.48;;;6.40;99.90;;;;;;6250704;22;20011;-81
2023/03/04 04:04:05;;;;;;;7.57;0.63;;;6.40;99.90;;;;;;6250644;22;20016;-81
2023/03/04 04:06:30;;;;;;;11.13;1.08;;;6.40;99.90;;;;;;6249998;22;20061;-81
2023/03/04 04:08:56;;;;;;;12.40;1.33;;;6.40;99.90;;;;;;6250425;22;20016;-81
2023/03/04 04:11:22;;;;;;;8.35;1.08;;;6.40;99.90;;;;;;6278038;22;20050;-81
2023/03/04 04:13:47;;;;;;;6.90;1.65;;;6.50;99.90;;;;;;6277917;22;20331;-81
2023/03/04 04:16:13;;;;;;;8.60;1.70;;;6.40;99.90;;;;;;6250563;22;20347;-80
2023/03/04 04:18:39;;;;;;;7.85;1.00;;;6.40;99.90;;;;;;6250342;22;20011;-80
2023/03/04 04:21:04;;;;;;;5.28;1.45;;;6.50;99.90;;;;;;6277657;22;20354;-81
2023/03/04 04:23:30;;;;;;;6.40;0.85;;;6.50;99.90;;;;;;6250400;22;20030;-80
2023/03/04 04:25:56;;;;;;;5.80;0.90;;;6.50;99.90;;;;;;6277518;22;20091;-81
2023/03/04 04:28:23;;;;;;;5.22;0.77;;;6.50;99.90;;;;;;6250537;22;20515;-81
2023/03/04 04:30:48;;;;;;;5.55;0.88;;;6.50;99.90;;;;;;6277404;22;20340;-81
2023/03/04 04:33:15;;;;;;;6.32;1.90;;;6.50;99.90;;;;;;6278011;22;20027;-81
2023/03/04 04:35:40;;;;;;;11.05;1.40;;;6.50;99.90;;;;;;6251269;22;20465;-81
2023/03/04 04:38:07;;;;;;;12.38;1.30;;;6.50;99.90;;;;;;6277804;22;20094;-81
2023/03/04 04:40:32;;;;;;;6.18;1.48;;;6.40;99.90;;;;;;6250263;22;20501;-80
2023/03/04 04:42:58;;;;;;;5.57;1.20;;;6.40;99.90;;;;;;6250355;22;20020;-81
2023/03/04 04:45:24;;;;;;;7.25;1.33;;;6.40;99.90;;;;;;6250279;22;20068;-81
2023/03/04 04:47:51;;;;;;;10.63;1.30;;;6.50;99.90;;;;;;6249991;22;20068;-81
2023/03/04 04:50:17;;;;;;;7.78;1.33;;;6.40;99.90;;;;;;6277104;22;20351;-81
2023/03/04 04:52:43;;;;;;;11.18;1.67;;;6.40;99.90;;;;;;6250088;22;20087;-81
2023/03/04 04:55:09;;;;;;;8.55;1.40;;;6.40;99.90;;;;;;6250160;22;20047;-81
2023/03/04 04:57:35;;;;;;;11.75;1.27;;;6.40;99.90;;;;;;6277417;22;20038;-81
2023/03/04 05:00:01;;;;;;;8.82;1.67;;;6.40;99.90;;;;;;6249970;22;20077;-81
2023/03/04 05:02:26;;;;;;;11.77;1.42;;;6.40;99.90;;;;;;6250022;22;20012;-81
2023/03/04 05:04:52;;;;;;;7.80;1.10;;;6.40;99.90;;;;;;6277465;22;20094;-81
2023/03/04 05:07:18;;;;;;;7.63;1.20;;;6.40;99.90;;;;;;6277176;22;20340;-81
2023/03/04 05:09:44;;;;;;;7.95;0.80;;;6.40;99.90;;;;;;6250104;22;20087;-81
2023/03/04 05:12:10;;;;;;;6.20;1.50;;;6.40;99.90;;;;;;6249956;22;20018;-79
2023/03/04 05:14:36;;;;;;;9.38;2.22;;;6.40;99.90;;;;;;6249897;22;20023;-79
2023/03/04 05:17:01;;;;;;;7.25;1.00;;;6.40;99.90;;;;;;6249718;22;20043;-80
2023/03/04 05:19:27;;;;;;;16.00;2.53;;;6.40;99.90;;;;;;6249847;22;20091;-79
2023/03/04 05:21:53;;;;;;;25.13;2.55;;;6.40;99.90;;;;;;6249843;22;20015;-79
2023/03/04 05:24:18;;;;;;;6.63;0.93;;;6.50;99.90;;;;;;6250184;22;20316;-80
2023/03/04 05:26:44;;;;;;;13.13;2.60;;;6.40;99.90;;;;;;6277218;22;20062;-80
2023/03/04 05:29:10;;;;;;;16.33;2.25;;;6.40;99.90;;;;;;6249762;22;20011;-79
2023/03/04 05:31:35;;;;;;;1.52;0.32;;;6.40;99.90;;;;;;6277840;22;20073;-80
2023/03/04 05:34:01;;;;;;;10.93;1.33;;;6.50;99.90;;;;;;6276888;22;20016;-80
2023/03/04 05:36:27;;;;;;;10.27;1.00;;;6.40;99.90;;;;;;6250700;22;20027;-80
2023/03/04 05:38:53;;;;;;;6.93;1.00;;;6.40;99.90;;;;;;6249777;22;20054;-80
2023/03/04 05:41:21;;;;;;;8.13;0.82;;;6.30;99.90;;;;;;6249747;22;20020;-80
2023/03/04 05:43:47;;;;;;;9.75;1.00;;;6.30;99.90;;;;;;6249597;22;20068;-80
2023/03/04 05:46:15;;;;;;;14.13;1.58;;;6.30;99.90;;;;;;6249481;22;20026;-80
2023/03/04 05:48:41;;;;;;;12.80;1.63;;;6.20;99.90;;;;;;6249358;22;20024;-80
2023/03/04 05:51:07;;;;;;;3.55;0.80;;;6.20;99.90;;;;;;6276820;22;20019;-80
2023/03/04 05:53:35;;;;;;;4.63;0.80;;;6.20;99.90;;;;;;6277185;22;20012;-79
2023/03/04 05:56:09;;;;;;;10.68;2.15;;;6.30;99.90;;;;;;6249317;22;20474;-80
2023/03/04 05:58:35;;;;;;;9.18;1.25;;;6.20;99.90;;;;;;6249559;22;20047;-79
2023/03/04 06:01:02;;;;;;;6.30;1.70;;;6.20;99.90;;;;;;6276891;22;20448;-79
2023/03/04 06:03:28;;;;;;;9.60;1.48;;;6.20;99.90;;;;;;6276960;22;20022;-80
2023/03/04 06:05:54;;;;;;;8.25;1.00;;;6.30;99.90;;;;;;6276914;22;20091;-80
2023/03/04 06:08:19;;;;;;;7.95;1.60;;;6.30;99.90;;;;;;6249497;22;20043;-80
2023/03/04 06:10:45;;;;;;;13.90;1.55;;;6.30;99.90;;;;;;6249470;22;20020;-80
2023/03/04 06:13:11;;;;;;;9.73;1.13;;;6.30;99.90;;;;;;6249468;22;20016;-80
2023/03/04 06:15:38;;;;;;;10.05;1.58;;;6.40;99.90;;;;;;6276840;22;20028;-80
2023/03/04 06:18:05;;;;;;;7.15;1.90;;;6.40;99.90;;;;;;6248599;22;20058;-80
2023/03/04 06:20:31;;;;;;;12.18;1.63;;;6.40;99.90;;;;;;6249230;22;20016;-80
2023/03/04 06:22:56;;;;;;;5.55;0.90;;;6.40;99.90;;;;;;6249333;22;20026;-80
2023/03/04 06:25:22;;;;;;;6.50;0.68;;;6.40;99.90;;;;;;6276735;22;20343;-79
2023/03/04 06:27:48;;;;;;;6.25;1.10;;;6.40;99.90;;;;;;6249394;22;20020;-80
2023/03/04 06:30:14;;;;;;;12.82;1.63;;;6.50;99.90;;;;;;6251024;22;20095;-80
2023/03/04 06:32:43;;;;;;;9.90;1.52;;;6.50;99.90;;;;;;6251221;22;20023;-80
2023/03/04 06:35:12;;;;;;;4.90;0.80;;;6.50;99.90;;;;;;6251432;22;20087;-79
2023/03/04 06:37:38;;;;;;;8.30;0.90;;;6.50;99.90;;;;;;6251110;22;20087;-81
2023/03/04 06:40:04;;;;;;;1.25;0.30;;;6.40;99.90;;;;;;6278631;22;20100;-81
2023/03/04 06:42:30;;;;;;;6.43;1.08;;;6.40;99.90;;;;;;6251159;22;20020;-81
2023/03/04 06:44:55;;;;;;;7.50;1.25;;;6.40;99.90;;;;;;6250960;22;20022;-81
2023/03/04 06:47:21;;;;;;;9.55;1.25;;;6.40;99.90;;;;;;6251168;22;20098;-80
2023/03/04 06:49:51;;;;;;;17.15;2.80;;;6.30;99.90;;;;;;6250895;22;20099;-82
2023/03/04 06:52:17;;;;;;;17.75;2.67;;;6.30;99.90;;;;;;6251124;22;20020;-81
2023/03/04 06:54:43;;;;;;;8.93;1.30;;;6.30;99.90;;;;;;6278251;22;20103;-81
2023/03/04 06:57:08;;;;;;;9.45;1.33;;;6.30;99.90;;;;;;6278222;22;20087;-81
2023/03/04 06:59:34;;;;;;;15.55;2.08;;;6.30;99.90;;;;;;6250957;22;20087;-81
2023/03/04 07:02:00;;;;;;;13.50;1.40;;;6.40;99.90;;;;;;6278535;22;20016;-81
2023/03/04 07:04:25;;;;;;;15.80;2.67;;;6.40;99.90;;;;;;6278082;22;20077;-81
2023/03/04 07:06:51;;;;;;;16.67;3.00;;;6.40;99.90;;;;;;6278409;22;20016;-81
2023/03/04 07:09:17;;;;;;;13.35;2.35;;;6.40;99.90;;;;;;6250928;22;20044;-81
2023/03/04 07:11:43;;;;;;;9.02;1.48;;;6.40;99.90;;;;;;6250802;22;20016;-81
2023/03/04 07:14:09;;;;;;;8.68;1.45;;;6.40;99.90;;;;;;6277900;22;20395;-81
2023/03/04 07:16:35;;;;;;;9.13;3.13;;;6.50;99.90;;;;;;6278316;22;20444;-81
2023/03/04 07:19:00;;;;;;;10.60;2.90;;;6.50;99.90;;;;;;6278321;22;20042;-81
2023/03/04 07:21:26;;;;;;;14.73;2.97;;;6.50;99.90;;;;;;6250733;22;20095;-80
2023/03/04 07:23:52;;;;;;;10.93;2.47;;;6.50;99.90;;;;;;6278121;22;20034;-81
2023/03/04 07:26:18;;;;;;;11.93;1.65;;;6.50;99.90;;;;;;6277838;22;20332;-81
2023/03/04 07:28:43;;;;;;;8.90;1.85;;;6.50;99.90;;;;;;6250630;22;20012;-81
2023/03/04 07:31:32;;;;;;;11.70;2.28;;;6.50;99.90;;;;;;6250867;22;20011;-82
2023/03/04 07:34:01;;;;;;;12.93;1.83;;;6.50;99.90;;;;;;6249951;22;20133;-82
2023/03/04 07:36:27;;;;;;;15.73;2.38;;;6.60;99.90;;;;;;6249486;22;20086;-81
2023/03/04 07:38:53;;;;;;;11.32;2.10;;;6.60;99.90;;;;;;6250539;22;20057;-81
2023/03/04 07:41:20;;;;;;;4.18;1.23;;;6.50;99.90;;;;;;6250446;22;20069;-81
2023/03/04 07:43:49;;;;;;;8.90;1.98;;;6.50;99.90;;;;;;6250921;22;20023;-80
2023/03/04 07:46:16;;;;;;;15.02;1.58;;;6.60;99.90;;;;;;6277734;22;20027;-81
2023/03/04 07:48:42;;;;;;;12.77;2.47;;;6.50;99.90;;;;;;6250202;22;20347;-81
2023/03/04 07:51:09;;;;;;;11.43;3.28;;;6.60;99.90;;;;;;6250234;22;20024;-82
2023/03/04 07:53:36;;;;;;;13.70;1.80;;;6.60;99.90;;;;;;6250383;22;20090;-81
2023/03/04 07:56:03;;;;;;;17.17;2.80;;;6.60;99.90;;;;;;6277411;22;20016;-81
2023/03/04 07:58:29;;;;;;;8.02;2.22;;;6.60;99.90;;;;;;6250287;22;20335;-81
2023/03/04 08:00:55;;;;;;;18.15;2.78;;;6.60;99.90;;;;;;6250056;22;20022;-79
2023/03/04 08:03:20;;;;;;;14.73;2.63;;;6.60;99.90;;;;;;6250388;22;20484;-81
2023/03/04 08:05:46;;;;;;;17.38;3.33;;;6.60;99.90;;;;;;6277529;22;20077;-86
2023/03/04 08:08:12;;;;;;;15.27;2.40;;;6.70;99.90;;;;;;6250421;22;20016;-82
2023/03/04 08:10:38;;;;;;;14.00;1.67;;;6.70;99.90;;;;;;6250364;22;20011;-81
2023/03/04 08:13:05;;;;;;;16.60;2.45;;;6.70;99.90;;;;;;6250209;22;20018;-82
2023/03/04 08:15:32;;;;;;;11.73;2.17;;;6.60;99.90;;;;;;6276890;22;20467;-82
2023/03/04 08:18:00;;;;;;;10.38;1.65;;;6.70;99.90;;;;;;6246614;22;20020;-82
2023/03/04 08:20:26;;;;;;;15.02;2.17;;;6.70;99.90;;;;;;6249020;22;20027;-82
2023/03/04 08:22:51;;;;;;;14.32;1.95;;;6.70;99.90;;;;;;6249949;22;20016;-82
2023/03/04 08:25:18;;;;;;;8.88;1.45;;;6.70;99.90;;;;;;6249888;22;20008;-84
2023/03/04 08:27:44;;;;;;;24.35;2.55;;;6.80;99.90;;;;;;6250092;22;20027;-85
2023/03/04 08:30:16;;;;;;;9.50;1.42;;;6.80;99.90;;;;;;6249641;22;20019;-84
2023/03/04 08:35:44;;;;;;;11.15;1.70;;;6.80;99.90;;;;;;6258556;22;20277;-87
2023/03/04 08:38:21;;;;;;;13.57;1.92;;;6.80;99.90;;;;;;6243532;22;20020;-88
2023/03/04 08:40:59;;;;;;;15.70;2.53;;;6.90;99.90;;;;;;6249914;22;20077;-82
2023/03/04 08:43:25;;;;;;;14.55;2.20;;;6.90;99.90;;;;;;6249610;22;20011;-81
2023/03/04 08:45:52;;;;;;;21.13;2.70;;;6.90;99.90;;;;;;6249749;22;20011;-82
2023/03/04 08:48:19;;;;;;;15.40;3.20;;;6.80;99.90;;;;;;6249501;22;20042;-82
2023/03/04 08:50:45;;;;;;;11.43;2.53;;;6.80;99.90;;;;;;6249456;22;20016;-85
2023/03/04 08:53:12;;;;;;;14.98;2.17;;;6.90;99.90;;;;;;6249394;22;20016;-86
2023/03/04 08:55:39;;;;;;;15.30;2.28;;;6.90;99.90;;;;;;6250153;22;20012;-87
2023/03/04 08:58:05;;;;;;;19.10;2.35;;;6.90;99.90;;;;;;6249668;22;20402;-82
2023/03/04 09:00:31;;;;;;;15.23;2.30;;;6.90;99.90;;;;;;6276757;22;20043;-82
2023/03/04 09:02:57;;;;;;;22.80;3.33;;;6.90;99.90;;;;;;6249703;22;20055;-86
2023/03/04 09:05:22;;;;;;;14.82;2.05;;;6.90;99.90;;;;;;6249500;22;20022;-83
2023/03/04 09:07:48;;;;;;;12.77;1.52;;;6.90;99.90;;;;;;6249930;22;20022;-85
2023/03/04 09:10:14;;;;;;;12.60;2.08;;;6.90;99.90;;;;;;6249339;22;20020;-85
2023/03/04 09:12:39;;;;;;;12.50;1.92;;;6.90;99.90;;;;;;6249960;22;20008;-86
2023/03/04 09:15:06;;;;;;;19.70;2.65;;;7.00;99.90;;;;;;6249613;22;20023;-86
2023/03/04 09:17:32;;;;;;;10.10;1.98;;;7.00;99.90;;;;;;6249528;22;20385;-86
2023/03/04 09:19:58;;;;;;;10.27;2.10;;;7.00;99.90;;;;;;6249554;22;20027;-86
2023/03/04 09:22:24;;;;;;;2.55;0.60;;;6.90;99.90;;;;;;6249636;22;20019;-85
2023/03/04 09:24:52;;;;;;;6.65;1.23;;;7.00;99.90;;;;;;6249343;22;20030;-85
2023/03/04 09:27:18;;;;;;;12.55;1.75;;;7.00;99.90;;;;;;6249942;22;20708;-85
2023/03/04 09:29:44;;;;;;;3.25;0.70;;;6.90;99.90;;;;;;6276843;22;20138;-85
2023/03/04 09:32:10;;;;;;;8.15;0.95;;;6.90;99.90;;;;;;6249618;22;20486;-86
2023/03/04 09:34:36;;;;;;;3.53;0.70;;;6.90;99.90;;;;;;6249324;22;20015;-86
2023/03/04 09:37:01;;;;;;;18.05;1.83;;;6.90;99.90;;;;;;6249881;22;20019;-85
2023/03/04 09:39:27;;;;;;;6.65;1.60;;;7.00;99.90;;;;;;6249214;22;20091;-84
2023/03/04 09:41:57;;;;;;;10.40;1.45;;;7.00;99.90;;;;;;6249418;22;20047;-85
2023/03/04 09:44:35;;;;;;;8.52;0.82;;;7.10;99.90;;;;;;6276941;22;20072;-85
2023/03/04 09:47:04;;;;;;;3.88;0.70;;;7.20;99.90;;;;;;6249446;22;20016;-84
2023/03/04 09:49:30;;;;;;;9.90;1.25;;;7.20;99.90;;;;;;6249290;22;20096;-85
2023/03/04 09:52:16;;;;;;;8.23;1.00;;;7.20;99.90;;;;;;6249336;22;20011;-85
2023/03/04 09:55:04;;;;;;;9.80;1.48;;;7.30;99.90;;;;;;6248617;22;20020;-85
2023/03/04 09:57:51;;;;;;;13.90;1.30;;;7.30;99.90;;;;;;6249150;22;20423;-85
2023/03/04 10:00:31;;;;;;;7.18;0.98;;;7.30;99.90;;;;;;6249676;22;20022;-85
2023/03/04 10:03:08;;;;;;;6.35;0.90;;;7.20;99.90;;;;;;6250220;22;20015;-85
2023/03/04 10:05:43;;;;;;;12.15;1.52;;;7.20;99.90;;;;;;6278789;22;20099;-84
2023/03/04 10:08:35;;;;;;;9.60;1.50;;;7.20;99.90;;;;;;6251509;22;20091;-84
2023/03/04 10:11:05;;;;;;;12.95;1.50;;;7.20;99.90;;;;;;6251337;22;20020;-84
2023/03/04 10:13:56;;;;;;;15.48;1.50;;;7.30;99.90;;;;;;6251381;22;20016;-84
2023/03/04 10:16:28;;;;;;;7.03;1.30;;;7.40;99.90;;;;;;6220824;22;20054;-84
2023/03/04 10:19:44;;;;;;;18.20;2.40;;;7.40;99.90;;;;;;6251522;22;20027;-84
2023/03/04 10:22:27;;;;;;;19.73;2.30;;;7.50;99.90;;;;;;6200336;22;20020;-84
2023/03/04 10:24:56;;;;;;;17.30;1.98;;;7.50;99.90;;;;;;6251389;22;20026;-85
2023/03/04 10:27:23;;;;;;;15.07;1.88;;;7.60;99.90;;;;;;6251289;22;20023;-85
2023/03/04 10:29:49;;;;;;;8.90;1.90;;;7.60;99.90;;;;;;6251173;22;20024;-85
2023/03/04 10:32:19;;;;;;;16.05;2.72;;;7.50;99.90;;;;;;6251200;22;20447;-85
2023/03/04 10:34:45;;;;;;;23.17;6.65;;;7.50;99.90;;;;;;6251211;22;20126;-85
2023/03/04 10:37:11;;;;;;;15.40;1.80;;;7.50;99.90;;;;;;6250942;22;20027;-84
2023/03/04 10:39:45;;;;;;;14.60;1.88;;;7.50;99.90;;;;;;6251079;22;20016;-84
2023/03/04 10:42:13;;;;;;;16.08;1.92;;;7.50;99.90;;;;;;6251085;22;20026;-85
2023/03/04 10:44:54;;;;;;;19.13;2.20;;;7.50;99.90;;;;;;6250918;22;20020;-85
2023/03/04 10:47:31;;;;;;;13.23;1.58;;;7.60;99.90;;;;;;6251116;22;20027;-84
2023/03/04 10:50:02;;;;;;;12.30;2.60;;;7.60;99.90;;;;;;6278402;22;20077;-84
2023/03/04 10:52:40;;;;;;;14.48;1.92;;;7.70;99.90;;;;;;6251409;22;20102;-84
2023/03/04 10:55:18;;;;;;;12.93;2.08;;;7.70;99.90;;;;;;6251173;22;20012;-84
2023/03/04 10:57:48;;;;;;;10.93;1.98;;;7.80;99.90;;;;;;6250964;22;20026;-84
2023/03/04 11:00:17;;;;;;;14.25;1.75;;;7.90;99.90;;;;;;6250862;22;20008;-84
2023/03/04 11:02:47;;;;;;;12.65;1.70;;;7.80;99.90;;;;;;6250936;22;20451;-85
2023/03/04 11:05:25;;;;;;;9.38;1.73;;;7.80;99.90;;;;;;6251071;22;20008;-82
2023/03/04 11:07:53;;;;;;;13.95;2.00;;;7.80;99.90;;;;;;6250967;22;20016;-83
2023/03/04 11:10:19;;;;;;;13.02;1.98;;;7.80;99.90;;;;;;6250839;22;20020;-81
2023/03/04 11:12:50;;;;;;;13.75;1.90;;;7.70;99.90;;;;;;6250615;22;20026;-82
2023/03/04 11:15:26;;;;;;;13.70;2.40;;;7.70;99.90;;;;;;6250491;22;20416;-89
2023/03/04 11:18:11;;;;;;;26.60;2.88;;;7.70;99.90;;;;;;6250750;22;20015;-82
2023/03/04 11:20:41;;;;;;;14.82;2.35;;;7.70;99.90;;;;;;6278239;22;20023;-82
2023/03/04 11:23:17;;;;;;;21.08;2.40;;;7.70;99.90;;;;;;6250609;22;20347;-82
2023/03/04 11:25:48;;;;;;;18.35;2.40;;;7.80;99.90;;;;;;6251101;22;20026;-82
2023/03/04 11:28:23;;;;;;;17.25;2.35;;;7.80;99.90;;;;;;6250486;22;20439;-82
2023/03/04 11:30:59;;;;;;;16.88;1.88;;;7.80;99.90;;;;;;6250405;22;20200;-82
2023/03/04 11:33:42;;;;;;;7.65;1.85;;;7.80;99.90;;;;;;6250577;22;20051;-81
2023/03/04 11:36:53;;;;;;;7.10;1.73;;;7.90;99.90;;;;;;6277992;22;20051;-82
2023/03/04 11:39:46;;;;;;;15.00;1.83;;;7.90;99.90;;;;;;6231574;22;20027;-82
2023/03/04 11:42:28;;;;;;;11.83;2.10;;;8.00;99.90;;;;;;6250455;22;20112;-81
2023/03/04 11:44:54;;;;;;;23.20;3.90;;;8.10;99.90;;;;;;6250454;22;20335;-81
2023/03/04 11:47:57;;;;;;;16.33;2.70;;;8.10;99.90;;;;;;6250400;22;20459;-81
2023/03/04 11:50:30;;;;;;;8.63;1.40;;;8.10;99.90;;;;;;6250242;22;20020;-81
2023/03/04 11:52:59;;;;;;;10.50;2.22;;;8.20;99.90;;;;;;6250436;22;20050;-81
2023/03/04 11:55:30;;;;;;;15.35;2.35;;;8.30;99.90;;;;;;6250463;22;20077;-83
2023/03/04 11:58:27;;;;;;;12.55;1.95;;;8.30;99.90;;;;;;6250608;22;20016;-81
2023/03/04 12:01:01;;;;;;;18.90;2.40;;;8.20;99.90;;;;;;6250446;22;20410;-81
2023/03/04 12:03:44;;;;;;;5.10;1.02;;;8.10;99.90;;;;;;6250639;22;20016;-81
2023/03/04 12:06:24;;;;;;;9.98;1.17;;;8.10;99.90;;;;;;6251029;22;20015;-81
2023/03/04 12:09:19;;;;;;;8.43;1.23;;;8.10;99.90;;;;;;6250338;22;20073;-80
2023/03/04 12:12:02;;;;;;;11.82;2.13;;;8.10;99.90;;;;;;6193257;22;20069;-81
2023/03/04 12:14:45;;;;;;;8.25;3.17;;;8.20;99.90;;;;;;6250580;22;20064;-81
2023/03/04 12:17:16;;;;;;;7.20;1.15;;;8.20;99.90;;;;;;6250238;22;20016;-80
2023/03/04 12:20:26;;;;;;;12.95;2.70;;;8.30;99.90;;;;;;6250221;22;20020;-81
2023/03/04 12:23:07;;;;;;;12.95;1.60;;;8.30;99.90;;;;;;6124177;23;20022;-81
2023/03/04 12:25:49;;;;;;;5.40;1.30;;;8.30;99.90;;;;;;6124035;23;20346;-81
2023/03/04 12:28:39;;;;;;;8.32;1.90;;;8.20;99.90;;;;;;6201905;22;20019;-81
2023/03/04 12:31:28;;;;;;;6.28;1.40;;;8.20;99.90;;;;;;6249407;22;20452;-81
2023/03/04 12:34:06;;;;;;;11.50;1.65;;;8.30;99.90;;;;;;6250035;22;20317;-81
2023/03/04 12:36:50;;;;;;;12.68;1.60;;;8.40;99.90;;;;;;6250118;22;20085;-81
2023/03/04 12:39:22;;;;;;;9.60;1.73;;;8.40;99.90;;;;;;6250396;22;20439;-81
2023/03/04 12:42:18;;;;;;;11.60;2.05;;;8.50;99.90;;;;;;6250261;22;20073;-80
2023/03/04 12:44:55;;;;;;;9.80;0.98;;;8.70;99.90;;;;;;6250200;22;20493;-81
2023/03/04 12:47:51;;;;;;;7.70;0.98;;;8.90;99.90;;;;;;6277136;22;20083;-81
2023/03/04 12:50:50;;;;;;;8.25;0.68;;;8.70;99.90;;;;;;6249989;22;20023;-81
2023/03/04 12:53:36;;;;;;;7.00;1.33;;;8.60;99.90;;;;;;6249901;22;20019;-81
2023/03/04 12:56:04;;;;;;;7.82;1.02;;;8.50;99.90;;;;;;6249918;22;20011;-81
2023/03/04 12:58:34;;;;;;;8.90;1.33;;;8.40;99.90;;;;;;6249817;22;20022;-81
2023/03/04 13:01:15;;;;;;;15.30;2.78;;;8.50;99.90;;;;;;6249767;22;20023;-81
2023/03/04 13:04:07;;;;;;;8.82;1.80;;;8.50;99.90;;;;;;6249826;22;20023;-81
2023/03/04 13:06:48;;;;;;;8.65;1.52;;;8.60;99.90;;;;;;6249782;22;20019;-81